Blue Oak Ranch Reserve, California Weather observations

Data are for 10 minute period ending at time listed.
 Day   Time   Solar   Ave.   Ave.  Ave.  Vector  Max.   Baro.   Total    
  of    of     Rad.   Air    Rel.  Wind   Wind   Wind  Press.  Precip.   
Year   Day            Temp.  Hum.  Speed  Dir.   Gust                    
2017   (PST)  Kw/m2    F      %     mph   deg.    mph    mb.     in.     
-------------------------------------------------------------------------
  50   16:30   0.06   46.9    89    6.5   185    15.6   942.7    0.00 
  50   16:40   0.05   47.1    88    4.5   178    10.7   943.0    0.00 
  50   16:50   0.03   47.1    89    3.3   129     9.1   943.2    0.00 
  50   17:00   0.02   47.0    90    3.3   120     8.8   943.4    0.00 
  50   17:10   0.01   47.0    90    1.9   126     7.6   943.3    0.00 
  50   17:20   0.01   47.4    90    3.9   164     9.6   943.5    0.00 
  50   17:30   0.01   47.2    91    2.5   139     6.0   943.6    0.00 
  50   17:40   0.01   47.4    91    3.3   130     6.4   943.7    0.00 
  50   17:50   0.01   47.2    92    4.5   129    10.2   943.8    0.00 
  50   18:00   0.00   46.9    93    4.2   119     9.8   943.8    0.00 
  50   18:10   0.00   46.8    94    4.5   120    10.5   943.8    0.00 
  50   18:20   0.00   46.9    93    4.5   130     8.5   943.9    0.00 
  50   18:30   0.00   46.8    93    4.5   155    10.5   944.1    0.00 
  50   18:40   0.00   46.6    94    3.3   112     7.6   944.0    0.00 
  50   18:50   0.00   46.8    94    2.0   113     6.1   944.2    0.00 
  50   19:00   0.00   47.0    93    5.0   154     9.1   944.4    0.00 
  50   19:10   0.00   47.3    91    3.5   184     9.6   944.5    0.00 
  50   19:20   0.00   47.4    90    3.1   117     9.6   944.6    0.00 
  50   19:30   0.00   47.6    89    3.1   115     7.7   944.7    0.00 
  50   19:40   0.00   47.9    89    2.1   120     5.2   944.8    0.00 
  50   19:50   0.00   48.0    89    3.1   111     7.9   944.9    0.00 
  50   20:00   0.00   48.2    88    1.7   124     5.1   944.8    0.00 
  50   20:10   0.00   48.3    87    1.8   204     4.2   945.1    0.00 
  50   20:20   0.00   48.0    88    2.1   132     4.3   945.1    0.00 
  50   20:30   0.00   47.7    90    1.8   112     4.2   945.2    0.00 
  50   20:40   0.00   47.7    90    1.4    81     3.4   945.5    0.00 
  50   20:50   0.00   47.7    91    1.8   116     8.0   945.4    0.00 
  50   21:00   0.00   48.3    88    4.4   149     9.9   945.3    0.00 
  50   21:10   0.00   48.2    89    5.3   155     9.4   945.2    0.00 
  50   21:20   0.00   47.8    91    4.4   158     9.2   945.3    0.00 
  50   21:30   0.00   48.0    91    3.7   150     9.6   945.4    0.00 
  50   21:40   0.00   48.3    88    3.4   155     6.9   945.5    0.00 
  50   21:50   0.00   48.2    89    4.6   166    11.3   945.6    0.00 
  50   22:00   0.00   47.8    90    5.3   146    11.1   945.7    0.00 
  50   22:10   0.00   47.8    90    4.4   147    10.7   945.6    0.00 
  50   22:20   0.00   48.1    89    5.9   166    10.2   945.7    0.00 
  50   22:30   0.00   47.7    90    5.6   154    10.7   945.7    0.00 
  50   22:40   0.00   47.6    90    3.5   135     8.0   945.7    0.00 
  50   22:50   0.00   47.9    89    3.8   148     7.5   945.7    0.00 
  50   23:00   0.00   48.0    90    4.5   152    10.7   945.7    0.00 
  50   23:10   0.00   48.0    90    5.6   140    10.4   945.4    0.00 
  50   23:20   0.00   47.6    92    6.3   165    12.2   945.1    0.00 
  50   23:30   0.00   47.2    93    5.2   169    11.5   945.2    0.00 
  50   23:40   0.00   46.9    94    4.2   148    10.6   945.4    0.00 
  50   23:50   0.00   47.2    95    2.8   179     6.8   945.4    0.00 
  51    0:00   0.00   47.8    95    4.9   140     9.8   945.3    0.00 
  51    0:10   0.00   48.1    94    4.3   146     9.5   945.3    0.00 
  51    0:20   0.00   48.6    93    3.4   191     9.3   945.5    0.00 
  51    0:30   0.00   47.8    94    5.1   164     9.5   945.6    0.00 
  51    0:40   0.00   47.9    94    4.2   152     9.2   945.8    0.03 
  51    0:50   0.00   48.3    94    4.5   151    10.7   945.6    0.04 
  51    1:00   0.00   48.3    94    5.9   173    12.1   945.4    0.04 
  51    1:10   0.00   48.1    94    4.9   155    11.7   945.4    0.02 
  51    1:20   0.00   47.9    95    4.4   144     8.8   945.3    0.02 
  51    1:30   0.00   47.9    96    2.8   115     6.6   945.2    0.01 
  51    1:40   0.00   48.5    96    5.5   144    13.3   945.2    0.01 
  51    1:50   0.00   48.8    95    4.9   162     9.5   945.3    0.00 
  51    2:00   0.00   48.7    95    3.9   148     8.6   945.1    0.01 
  51    2:10   0.00   48.7    95    4.3   134     8.1   945.1    0.00 
  51    2:20   0.00   48.8    96    4.4   122     8.8   944.8    0.00 
  51    2:30   0.00   48.9    96    5.3   145    12.3   944.9    0.00 
  51    2:40   0.00   49.0    96    2.9   132     6.4   944.9    0.01 
  51    2:50   0.00   49.2    96    2.8   160     7.4   944.9    0.01 
  51    3:00   0.00   49.3    96    4.1   149     8.3   945.2    0.02 
  51    3:10   0.00   49.5    96    2.8   112     6.3   945.3    0.01 
  51    3:20   0.00   49.7    96    3.0   128     7.7   945.1    0.02 
  51    3:30   0.00   49.8    96    5.6   141    11.7   945.0    0.01 
  51    3:40   0.00   49.6    96    4.9   135     9.3   944.9    0.01 
  51    3:50   0.00   49.5    96    5.0   128    11.3   944.6    0.02 
  51    4:00   0.00   49.4    96    5.4   137    12.1   944.6    0.01 
  51    4:10   0.00   49.3    96    4.9   129    11.7   944.6    0.01 
  51    4:20   0.00   49.3    96    5.6   143    12.6   944.5    0.01 
  51    4:30   0.00   49.5    96    5.4   138    11.8   944.6    0.00 
  51    4:40   0.00   49.8    96    6.5   142    12.7   944.8    0.00 
  51    4:50   0.00   50.1    96    5.2   175    11.3   945.3    0.02 
  51    5:00   0.00   50.6    96    5.6   187    13.6   945.4    0.02 
  51    5:10   0.00   50.8    96    4.5   186     9.6   945.4    0.03 
  51    5:20   0.00   50.8    96    3.5   198     9.3   945.6    0.01 
  51    5:30   0.00   51.0    96    5.2   173     9.4   945.7    0.06 
  51    5:40   0.00   51.0    96    4.3   162     9.1   945.9    0.01 
  51    5:50   0.00   50.8    96    2.9   145     8.0   945.5    0.02 
  51    6:00   0.00   50.8    96    3.6   141     8.3   945.5    0.02 
  51    6:10   0.00   50.7    96    3.6   175     7.5   945.9    0.06 
  51    6:20   0.00   50.5    96    4.0   166     8.5   946.0    0.05 
  51    6:30   0.00   50.5    96    2.5   187     7.1   946.2    0.03 
  51    6:40   0.00   50.5    96    3.6   265     8.8   946.6    0.06 
  51    6:50   0.00   50.7    96    4.1   261     9.3   946.8    0.04 
  51    7:00   0.00   50.8    96    3.4   159     6.4   946.6    0.02 
  51    7:10   0.00   50.7    96    2.4   176     5.6   946.6    0.00 
  51    7:20   0.00   50.7    96    2.0   228     4.6   946.7    0.00 
  51    7:30   0.01   50.8    96    1.9   184     5.8   946.9    0.02 
  51    7:40   0.01   50.7    96    3.9   205     6.2   947.4    0.02 
  51    7:50   0.01   50.7    96    0.9   190     4.2   947.6    0.05 
  51    8:00   0.01   50.8    96    1.4   142     3.5   947.5    0.02 
  51    8:10   0.01   50.8    96    1.5    84     3.4   947.3    0.01 
  51    8:20   0.02   50.8    96    2.0    79     3.5   947.1    0.01 
  51    8:30   0.04   50.9    96    1.5    76     3.6   947.0    0.01 
  51    8:40   0.03   51.0    96    1.6   171     3.5   947.5    0.01 
  51    8:50   0.04   51.0    96    2.0   115     4.6   947.3    0.02 
  51    9:00   0.06   51.0    96    2.9   116     5.3   947.2    0.00 
  51    9:10   0.03   51.0    95    3.1   188     6.8   948.1    0.02 
  51    9:20   0.04   50.8    95    2.6   120     6.4   947.7    0.04 
  51    9:30   0.04   50.9    95    1.4   162     4.4   947.8    0.02 
  51    9:40   0.05   50.9    95    1.5   112     3.5   947.8    0.03 
  51    9:50   0.05   51.2    95    1.3   215     2.8   947.9    0.01 
  51   10:00   0.04   51.1    95    3.3   190     8.0   948.3    0.03 
  51   10:10   0.05   50.9    95    3.8   162     7.8   948.5    0.03 
  51   10:20   0.06   51.1    95    2.5   111     6.5   948.0    0.02 
  51   10:30   0.05   51.2    95    2.7   153     7.1   947.9    0.01 
  51   10:40   0.06   51.1    95    5.1   160    10.2   948.3    0.02 
  51   10:50   0.08   50.9    95    4.1   150     8.3   947.7    0.02 
  51   11:00   0.04   50.7    95    3.7   200     6.4   948.4    0.01 
  51   11:10   0.04   50.8    95    2.8   235     6.0   949.0    0.04 
  51   11:20   0.06   50.9    95    1.4   232     4.5   949.1    0.06 
  51   11:30   0.06   50.8    95    1.8   271     4.1   948.8    0.03 
  51   11:40   0.07   51.0    95    1.7   138     4.1   948.3    0.02 
  51   11:50   0.09   51.1    95    3.2   156     8.0   948.3    0.02 
  51   12:00   0.05   51.1    95    2.7   213     5.7   948.5    0.01 
  51   12:10   0.06   51.0    95    3.9   228     7.4   948.4    0.07 
  51   12:20   0.07   50.7    95    2.2   234     4.6   948.0    0.03 
  51   12:30   0.07   50.8    95    1.9   240     5.3   947.6    0.03 
  51   12:40   0.04   49.5    94    2.6   192     5.0   947.4    0.01 
  51   12:50   0.04   48.8    94    2.4   240     4.2   947.5    0.03 
  51   13:00   0.05   48.5    94    3.9   296     6.0   947.5    0.04 
  51   13:10   0.04   48.3    94    5.1   297     8.8   947.6    0.03 
  51   13:20   0.06   48.3    94    4.3   316     6.7   947.6    0.04 
  51   13:30   0.07   48.5    94    3.7   300     7.7   947.7    0.07 
  51   13:40   0.11   49.0    94    2.1     6     7.2   947.2    0.02 
  51   13:50   0.07   49.1    94    3.1    63     6.9   946.8    0.04 
  51   14:00   0.08   48.8    94    3.4    30     8.0   946.5    0.02 
  51   14:10   0.10   49.3    94    2.5   112     6.0   946.1    0.02 
  51   14:20   0.04   49.4    94    3.8   104     8.9   945.8    0.02 
  51   14:30   0.07   49.6    94    3.6   123     6.4   946.0    0.06 
  51   14:40   0.05   49.9    95    3.4   101     7.6   945.4    0.05 
  51   14:50   0.04   50.4    95    5.6   150    11.5   946.2    0.05 
  51   15:00   0.07   51.1    95    7.0   163    14.0   945.8    0.04 
  51   15:10   0.06   52.0    94    7.9   146    21.6   945.3    0.00 
  51   15:20   0.04   52.2    94    8.1   154    16.9   945.3    0.01 
  51   15:30   0.03   52.3    95    6.4   176    12.4   945.9    0.00 
  51   15:40   0.03   52.7    95    6.7   178    14.0   946.1    0.04 
  51   15:50   0.03   52.8    94    8.7   164    17.8   946.2    0.02 
  51   16:00   0.06   53.0    92    9.4   158    20.4   945.7    0.01 
  51   16:10   0.03   52.9    93    7.9   161    21.3   945.7    0.01 
  51   16:20   0.03   52.6    92   10.2   165    20.9   945.5    0.00 

Return to Blue Oak Ranch Reserve graphs page.


Western Regional Climate Center,wrcc@dri.edu